sensor_id;sensor_type;location;lat;lon;timestamp;pressure;altitude;pressure_sealevel;temperature;humidity
25638;BME280;13496;51.040;13.680;2023-05-24T00:03:58;100023.03;;;23.06;45.50
25638;BME280;13496;51.040;13.680;2023-05-24T00:09:00;100025.66;;;23.06;45.87
25638;BME280;13496;51.040;13.680;2023-05-24T00:14:02;100025.31;;;23.03;45.86
25638;BME280;13496;51.040;13.680;2023-05-24T00:19:04;100036.09;;;23.01;45.91
25638;BME280;13496;51.040;13.680;2023-05-24T00:24:06;100032.22;;;22.97;45.73
25638;BME280;13496;51.040;13.680;2023-05-24T00:29:07;100038.75;;;22.94;45.71
25638;BME280;13496;51.040;13.680;2023-05-24T00:34:09;100037.94;;;22.94;45.39
25638;BME280;13496;51.040;13.680;2023-05-24T00:39:11;100040.38;;;22.89;45.69
25638;BME280;13496;51.040;13.680;2023-05-24T00:44:13;100039.34;;;22.90;45.66
25638;BME280;13496;51.040;13.680;2023-05-24T00:49:14;100049.13;;;22.89;45.66
25638;BME280;13496;51.040;13.680;2023-05-24T00:54:16;100049.34;;;22.88;45.62
25638;BME280;13496;51.040;13.680;2023-05-24T00:59:19;100053.00;;;22.87;45.78
25638;BME280;13496;51.040;13.680;2023-05-24T01:04:21;100050.56;;;22.85;45.86
25638;BME280;13496;51.040;13.680;2023-05-24T01:09:54;100052.81;;;22.82;45.66
25638;BME280;13496;51.040;13.680;2023-05-24T01:20:16;100059.13;;;22.81;45.89
25638;BME280;13496;51.040;13.680;2023-05-24T01:30:59;100067.09;;;22.74;45.81
25638;BME280;13496;51.040;13.680;2023-05-24T01:36:01;100075.66;;;22.69;45.91
25638;BME280;13496;51.040;13.680;2023-05-24T01:41:14;100071.97;;;22.70;45.87
25638;BME280;13496;51.040;13.680;2023-05-24T01:46:28;100072.16;;;22.69;45.80
25638;BME280;13496;51.040;13.680;2023-05-24T01:51:40;100082.97;;;22.67;45.84
25638;BME280;13496;51.040;13.680;2023-05-24T01:56:47;100086.84;;;22.65;45.66
25638;BME280;13496;51.040;13.680;2023-05-24T02:01:49;100090.09;;;22.67;45.93
25638;BME280;13496;51.040;13.680;2023-05-24T02:06:51;100082.34;;;22.65;46.22
25638;BME280;13496;51.040;13.680;2023-05-24T02:11:53;100077.50;;;22.62;46.03
25638;BME280;13496;51.040;13.680;2023-05-24T02:16:54;100076.88;;;22.60;46.11
25638;BME280;13496;51.040;13.680;2023-05-24T02:21:59;100071.81;;;22.59;46.09
25638;BME280;13496;51.040;13.680;2023-05-24T02:27:01;100070.59;;;22.55;45.61
25638;BME280;13496;51.040;13.680;2023-05-24T02:32:03;100067.97;;;22.55;46.10
25638;BME280;13496;51.040;13.680;2023-05-24T02:37:05;100060.44;;;22.52;45.53
25638;BME280;13496;51.040;13.680;2023-05-24T02:42:07;100061.25;;;22.52;45.94
25638;BME280;13496;51.040;13.680;2023-05-24T02:47:09;100063.25;;;22.50;46.05
25638;BME280;13496;51.040;13.680;2023-05-24T02:52:11;100056.34;;;22.49;45.89
25638;BME280;13496;51.040;13.680;2023-05-24T02:57:14;100063.25;;;22.50;46.22
25638;BME280;13496;51.040;13.680;2023-05-24T03:02:18;100060.03;;;22.48;46.18
25638;BME280;13496;51.040;13.680;2023-05-24T03:07:22;100056.56;;;22.48;46.23
25638;BME280;13496;51.040;13.680;2023-05-24T03:12:24;100058.38;;;22.47;46.18
25638;BME280;13496;51.040;13.680;2023-05-24T03:17:26;100071.00;;;22.45;46.29
25638;BME280;13496;51.040;13.680;2023-05-24T03:22:27;100080.16;;;22.42;45.86
25638;BME280;13496;51.040;13.680;2023-05-24T03:27:30;100072.63;;;22.39;46.32
25638;BME280;13496;51.040;13.680;2023-05-24T03:32:32;100072.63;;;22.39;46.10
25638;BME280;13496;51.040;13.680;2023-05-24T03:37:34;100077.09;;;22.39;46.44
25638;BME280;13496;51.040;13.680;2023-05-24T03:42:35;100068.59;;;22.37;46.27
25638;BME280;13496;51.040;13.680;2023-05-24T03:47:37;100086.06;;;22.38;46.34
25638;BME280;13496;51.040;13.680;2023-05-24T03:52:40;100078.34;;;22.36;46.48
25638;BME280;13496;51.040;13.680;2023-05-24T03:57:42;100090.13;;;22.34;46.22
25638;BME280;13496;51.040;13.680;2023-05-24T04:02:44;100090.13;;;22.34;46.48
25638;BME280;13496;51.040;13.680;2023-05-24T04:07:46;100091.16;;;22.33;46.35
25638;BME280;13496;51.040;13.680;2023-05-24T04:12:48;100095.03;;;22.37;46.47
25638;BME280;13496;51.040;13.680;2023-05-24T04:17:50;100109.25;;;22.36;46.13
25638;BME280;13496;51.040;13.680;2023-05-24T04:22:56;100105.38;;;22.38;46.42
25638;BME280;13496;51.040;13.680;2023-05-24T04:27:58;100117.00;;;22.44;46.43
25638;BME280;13496;51.040;13.680;2023-05-24T04:33:00;100107.84;;;22.40;45.97
25638;BME280;13496;51.040;13.680;2023-05-24T04:38:05;100114.75;;;22.41;46.40
25638;BME280;13496;51.040;13.680;2023-05-24T04:43:06;100117.38;;;22.41;46.50
25638;BME280;13496;51.040;13.680;2023-05-24T04:48:10;100125.50;;;22.39;46.43
25638;BME280;13496;51.040;13.680;2023-05-24T04:53:12;100134.06;;;22.41;46.48
25638;BME280;13496;51.040;13.680;2023-05-24T04:58:15;100134.06;;;22.41;46.05
25638;BME280;13496;51.040;13.680;2023-05-24T05:03:17;100144.63;;;22.41;45.55
25638;BME280;13496;51.040;13.680;2023-05-24T05:08:19;100150.75;;;22.42;46.40
25638;BME280;13496;51.040;13.680;2023-05-24T05:13:21;100145.03;;;22.45;46.35
25638;BME280;13496;51.040;13.680;2023-05-24T05:18:22;100145.25;;;22.43;46.42
25638;BME280;13496;51.040;13.680;2023-05-24T05:23:24;100158.47;;;22.43;46.18
25638;BME280;13496;51.040;13.680;2023-05-24T05:28:26;100155.00;;;22.43;45.87
25638;BME280;13496;51.040;13.680;2023-05-24T05:33:30;100154.81;;;22.44;46.03
25638;BME280;13496;51.040;13.680;2023-05-24T05:38:32;100157.25;;;22.46;45.89
25638;BME280;13496;51.040;13.680;2023-05-24T05:43:33;100157.25;;;22.46;45.86
25638;BME280;13496;51.040;13.680;2023-05-24T05:48:35;100164.16;;;22.47;45.49
25638;BME280;13496;51.040;13.680;2023-05-24T05:53:37;100163.75;;;22.50;45.45
25638;BME280;13496;51.040;13.680;2023-05-24T05:58:39;100166.41;;;22.43;44.83
25638;BME280;13496;51.040;13.680;2023-05-24T06:03:40;100167.03;;;22.52;45.55
25638;BME280;13496;51.040;13.680;2023-05-24T06:08:42;100164.38;;;22.52;44.67
25638;BME280;13496;51.040;13.680;2023-05-24T06:13:44;100168.22;;;22.56;45.29
25638;BME280;13496;51.040;13.680;2023-05-24T06:18:46;100174.72;;;22.47;43.82
25638;BME280;13496;51.040;13.680;2023-05-24T06:23:48;100190.19;;;22.50;45.03
25638;BME280;13496;51.040;13.680;2023-05-24T06:28:49;100180.44;;;22.44;43.12
25638;BME280;13496;51.040;13.680;2023-05-24T06:33:51;100187.75;;;22.49;44.70
25638;BME280;13496;51.040;13.680;2023-05-24T06:38:53;100184.91;;;22.50;44.50
25638;BME280;13496;51.040;13.680;2023-05-24T06:43:55;100188.97;;;22.46;43.90
25638;BME280;13496;51.040;13.680;2023-05-24T06:48:57;100195.47;;;22.50;44.12
25638;BME280;13496;51.040;13.680;2023-05-24T06:53:58;100193.47;;;22.52;44.03
25638;BME280;13496;51.040;13.680;2023-05-24T06:59:00;100196.91;;;22.53;43.98
25638;BME280;13496;51.040;13.680;2023-05-24T07:04:02;100202.00;;;22.54;43.90
25638;BME280;13496;51.040;13.680;2023-05-24T07:09:03;100208.72;;;22.57;43.43
25638;BME280;13496;51.040;13.680;2023-05-24T07:14:05;100207.28;;;22.54;43.66
25638;BME280;13496;51.040;13.680;2023-05-24T07:19:07;100218.28;;;22.64;43.84
25638;BME280;13496;51.040;13.680;2023-05-24T07:24:09;100205.06;;;22.64;43.55
25638;BME280;13496;51.040;13.680;2023-05-24T07:29:11;100217.47;;;22.70;43.25
25638;BME280;13496;51.040;13.680;2023-05-24T07:34:13;100211.78;;;22.74;43.93
25638;BME280;13496;51.040;13.680;2023-05-24T07:39:15;100224.78;;;22.62;42.07
25638;BME280;13496;51.040;13.680;2023-05-24T07:44:17;100221.34;;;22.68;43.08
25638;BME280;13496;51.040;13.680;2023-05-24T07:49:19;100224.78;;;22.75;43.68
25638;BME280;13496;51.040;13.680;2023-05-24T07:54:21;100234.34;;;22.83;43.17
25638;BME280;13496;51.040;13.680;2023-05-24T07:59:23;100233.13;;;22.79;41.86
25638;BME280;13496;51.040;13.680;2023-05-24T08:04:24;100236.19;;;22.82;43.09
25638;BME280;13496;51.040;13.680;2023-05-24T08:09:27;100235.97;;;22.84;42.65
25638;BME280;13496;51.040;13.680;2023-05-24T08:14:30;100246.38;;;22.85;43.13
25638;BME280;13496;51.040;13.680;2023-05-24T08:19:32;100248.78;;;22.80;43.48
25638;BME280;13496;51.040;13.680;2023-05-24T08:24:36;100247.19;;;22.86;43.88
25638;BME280;13496;51.040;13.680;2023-05-24T08:29:37;100243.09;;;22.83;43.36
25638;BME280;13496;51.040;13.680;2023-05-24T08:34:39;100242.09;;;22.84;44.08
25638;BME280;13496;51.040;13.680;2023-05-24T08:39:41;100241.28;;;22.77;43.23
25638;BME280;13496;51.040;13.680;2023-05-24T08:44:47;100240.84;;;22.87;43.49
25638;BME280;13496;51.040;13.680;2023-05-24T08:49:50;100258.56;;;22.86;42.87
25638;BME280;13496;51.040;13.680;2023-05-24T08:54:53;100255.91;;;22.80;43.00
25638;BME280;13496;51.040;13.680;2023-05-24T08:59:55;100260.63;;;22.84;43.62
25638;BME280;13496;51.040;13.680;2023-05-24T09:04:57;100255.75;;;22.81;43.24
25638;BME280;13496;51.040;13.680;2023-05-24T09:10:03;100255.75;;;22.88;42.56
25638;BME280;13496;51.040;13.680;2023-05-24T09:15:06;100253.91;;;22.95;41.92
25638;BME280;13496;51.040;13.680;2023-05-24T09:20:09;100257.19;;;23.04;41.67
25638;BME280;13496;51.040;13.680;2023-05-24T09:25:12;100253.91;;;22.95;42.10
25638;BME280;13496;51.040;13.680;2023-05-24T09:30:15;100251.25;;;22.95;42.03
25638;BME280;13496;51.040;13.680;2023-05-24T09:35:16;100251.66;;;23.18;42.92
25638;BME280;13496;51.040;13.680;2023-05-24T09:40:19;100252.91;;;23.03;42.95
25638;BME280;13496;51.040;13.680;2023-05-24T09:45:23;100247.22;;;22.99;41.65
25638;BME280;13496;51.040;13.680;2023-05-24T09:50:24;100244.13;;;23.02;41.95
25638;BME280;13496;51.040;13.680;2023-05-24T09:55:27;100247.41;;;23.11;41.78
25638;BME280;13496;51.040;13.680;2023-05-24T10:00:33;100262.66;;;23.15;41.74
25638;BME280;13496;51.040;13.680;2023-05-24T10:05:40;100262.25;;;23.18;42.30
25638;BME280;13496;51.040;13.680;2023-05-24T10:10:43;100258.41;;;23.14;41.51
25638;BME280;13496;51.040;13.680;2023-05-24T10:15:45;100256.13;;;23.31;42.76
25638;BME280;13496;51.040;13.680;2023-05-24T10:20:47;100261.00;;;23.34;42.78
25638;BME280;13496;51.040;13.680;2023-05-24T10:26:09;100269.16;;;23.33;42.14
25638;BME280;13496;51.040;13.680;2023-05-24T10:31:17;100248.97;;;23.38;42.75
25638;BME280;13496;51.040;13.680;2023-05-24T10:36:21;100259.78;;;23.37;42.67
25638;BME280;13496;51.040;13.680;2023-05-24T10:41:26;100274.03;;;23.36;41.39
25638;BME280;13496;51.040;13.680;2023-05-24T10:46:28;100270.31;;;23.57;42.51
25638;BME280;13496;51.040;13.680;2023-05-24T10:51:36;100282.34;;;23.59;42.01
25638;BME280;13496;51.040;13.680;2023-05-24T10:56:44;100272.00;;;23.45;42.00
25638;BME280;13496;51.040;13.680;2023-05-24T11:01:54;100280.91;;;23.50;42.27
25638;BME280;13496;51.040;13.680;2023-05-24T11:07:00;100286.38;;;23.62;42.22
25638;BME280;13496;51.040;13.680;2023-05-24T11:12:06;100287.19;;;23.76;40.82
25638;BME280;13496;51.040;13.680;2023-05-24T11:17:08;100286.25;;;23.43;41.40
25638;BME280;13496;51.040;13.680;2023-05-24T11:22:12;100292.72;;;23.61;41.41
25638;BME280;13496;51.040;13.680;2023-05-24T11:27:15;100272.06;;;23.89;40.35
25638;BME280;13496;51.040;13.680;2023-05-24T11:32:19;100268.16;;;23.99;40.43
25638;BME280;13496;51.040;13.680;2023-05-24T11:37:21;100277.16;;;23.91;41.32
25638;BME280;13496;51.040;13.680;2023-05-24T11:42:23;100275.56;;;23.83;40.69
25638;BME280;13496;51.040;13.680;2023-05-24T11:47:24;100269.00;;;23.93;42.00
25638;BME280;13496;51.040;13.680;2023-05-24T11:52:26;100272.16;;;24.14;41.51
25638;BME280;13496;51.040;13.680;2023-05-24T11:57:40;100274.97;;;24.20;41.46
25638;BME280;13496;51.040;13.680;2023-05-24T12:02:44;100273.63;;;24.49;40.43
25638;BME280;13496;51.040;13.680;2023-05-24T12:07:46;100267.81;;;24.27;40.37
25638;BME280;13496;51.040;13.680;2023-05-24T12:12:49;100278.66;;;24.19;41.25
25638;BME280;13496;51.040;13.680;2023-05-24T12:17:51;100276.97;;;24.31;41.18
25638;BME280;13496;51.040;13.680;2023-05-24T12:22:54;100272.44;;;24.38;41.06
25638;BME280;13496;51.040;13.680;2023-05-24T12:27:56;100268.56;;;24.72;40.48
25638;BME280;13496;51.040;13.680;2023-05-24T12:32:58;100270.75;;;24.50;41.17
25638;BME280;13496;51.040;13.680;2023-05-24T12:37:59;100268.66;;;24.59;40.85
25638;BME280;13496;51.040;13.680;2023-05-24T12:43:03;100276.81;;;24.57;40.51
25638;BME280;13496;51.040;13.680;2023-05-24T12:48:05;100267.00;;;24.58;40.79
25638;BME280;13496;51.040;13.680;2023-05-24T12:53:06;100271.69;;;24.62;40.49
25638;BME280;13496;51.040;13.680;2023-05-24T12:58:09;100264.63;;;24.50;40.97
25638;BME280;13496;51.040;13.680;2023-05-24T13:03:10;100261.47;;;24.66;40.82
25638;BME280;13496;51.040;13.680;2023-05-24T13:08:12;100260.81;;;24.32;40.00
25638;BME280;13496;51.040;13.680;2023-05-24T13:13:14;100260.63;;;24.41;40.60
25638;BME280;13496;51.040;13.680;2023-05-24T13:18:15;100250.28;;;24.57;40.90
25638;BME280;13496;51.040;13.680;2023-05-24T13:23:17;100244.56;;;24.60;40.36
25638;BME280;13496;51.040;13.680;2023-05-24T13:28:19;100246.88;;;24.75;40.49
25638;BME280;13496;51.040;13.680;2023-05-24T13:33:21;100237.50;;;24.73;40.88
25638;BME280;13496;51.040;13.680;2023-05-24T13:38:23;100247.28;;;24.79;40.56
25638;BME280;13496;51.040;13.680;2023-05-24T13:43:24;100234.28;;;24.71;40.88
25638;BME280;13496;51.040;13.680;2023-05-24T13:48:26;100242.38;;;24.76;41.10
25638;BME280;13496;51.040;13.680;2023-05-24T13:53:28;100241.69;;;24.62;40.80
25638;BME280;13496;51.040;13.680;2023-05-24T13:58:30;100238.06;;;24.56;41.21
25638;BME280;13496;51.040;13.680;2023-05-24T14:03:32;100224.19;;;24.54;40.52
25638;BME280;13496;51.040;13.680;2023-05-24T14:08:34;100235.94;;;24.65;41.00
25638;BME280;13496;51.040;13.680;2023-05-24T14:13:36;100227.69;;;24.73;41.06
25638;BME280;13496;51.040;13.680;2023-05-24T14:18:37;100228.78;;;24.91;41.04
25638;BME280;13496;51.040;13.680;2023-05-24T14:23:39;100226.78;;;24.86;40.98
25638;BME280;13496;51.040;13.680;2023-05-24T14:28:41;100230.88;;;24.89;41.17
25638;BME280;13496;51.040;13.680;2023-05-24T14:33:42;100238.88;;;24.82;41.20
25638;BME280;13496;51.040;13.680;2023-05-24T14:38:44;100234.66;;;24.74;41.34
25638;BME280;13496;51.040;13.680;2023-05-24T14:43:46;100230.59;;;24.72;41.65
25638;BME280;13496;51.040;13.680;2023-05-24T14:48:47;100225.88;;;24.74;41.45
25638;BME280;13496;51.040;13.680;2023-05-24T14:53:49;100227.50;;;24.75;41.30
25638;BME280;13496;51.040;13.680;2023-05-24T14:58:51;100233.56;;;24.82;41.08
25638;BME280;13496;51.040;13.680;2023-05-24T15:03:53;100232.19;;;24.73;40.33
25638;BME280;13496;51.040;13.680;2023-05-24T15:08:54;100224.25;;;24.73;40.46
25638;BME280;13496;51.040;13.680;2023-05-24T15:13:56;100228.31;;;24.75;40.69
25638;BME280;13496;51.040;13.680;2023-05-24T15:18:59;100230.03;;;24.88;41.27
25638;BME280;13496;51.040;13.680;2023-05-24T15:24:01;100228.69;;;24.79;40.48
25638;BME280;13496;51.040;13.680;2023-05-24T15:29:03;100239.91;;;24.81;40.40
25638;BME280;13496;51.040;13.680;2023-05-24T15:34:05;100228.34;;;24.94;41.39
25638;BME280;13496;51.040;13.680;2023-05-24T15:39:07;100236.00;;;24.83;40.24
25638;BME280;13496;51.040;13.680;2023-05-24T15:44:09;100244.34;;;24.87;40.60
25638;BME280;13496;51.040;13.680;2023-05-24T15:49:11;100242.06;;;24.91;40.83
25638;BME280;13496;51.040;13.680;2023-05-24T15:54:12;100235.47;;;25.00;40.93
25638;BME280;13496;51.040;13.680;2023-05-24T15:59:14;100239.97;;;24.99;40.89
25638;BME280;13496;51.040;13.680;2023-05-24T16:04:16;100240.22;;;24.91;40.08
25638;BME280;13496;51.040;13.680;2023-05-24T16:09:17;100237.72;;;24.96;40.69
25638;BME280;13496;51.040;13.680;2023-05-24T16:14:19;100225.94;;;24.92;40.29
25638;BME280;13496;51.040;13.680;2023-05-24T16:19:21;100222.25;;;24.93;40.21
25638;BME280;13496;51.040;13.680;2023-05-24T16:24:23;100221.38;;;24.99;41.21
25638;BME280;13496;51.040;13.680;2023-05-24T16:29:25;100224.47;;;24.96;40.28
25638;BME280;13496;51.040;13.680;2023-05-24T16:34:27;100226.31;;;24.96;40.24
25638;BME280;13496;51.040;13.680;2023-05-24T16:39:28;100235.66;;;24.98;40.26
25638;BME280;13496;51.040;13.680;2023-05-24T16:44:30;100245.69;;;24.96;40.64
25638;BME280;13496;51.040;13.680;2023-05-24T16:49:32;100251.22;;;24.95;40.45
25638;BME280;13496;51.040;13.680;2023-05-24T16:54:33;100246.28;;;24.98;40.45
25638;BME280;13496;51.040;13.680;2023-05-24T16:59:35;100243.41;;;25.00;40.66
25638;BME280;13496;51.040;13.680;2023-05-24T17:04:39;100239.97;;;24.99;40.84
25638;BME280;13496;51.040;13.680;2023-05-24T17:09:40;100243.63;;;24.98;40.82
25638;BME280;13496;51.040;13.680;2023-05-24T17:14:42;100249.59;;;24.94;40.92
25638;BME280;13496;51.040;13.680;2023-05-24T17:19:44;100248.94;;;24.98;40.76
25638;BME280;13496;51.040;13.680;2023-05-24T17:24:46;100247.31;;;24.97;40.79
25638;BME280;13496;51.040;13.680;2023-05-24T17:29:48;100253.66;;;24.96;41.00
25638;BME280;13496;51.040;13.680;2023-05-24T17:34:49;100260.59;;;24.97;40.91
25638;BME280;13496;51.040;13.680;2023-05-24T17:39:51;100265.91;;;24.97;41.56
25638;BME280;13496;51.040;13.680;2023-05-24T17:44:53;100270.44;;;24.90;40.82
25638;BME280;13496;51.040;13.680;2023-05-24T17:49:54;100281.88;;;24.91;41.32
25638;BME280;13496;51.040;13.680;2023-05-24T17:54:56;100283.94;;;24.89;41.02
25638;BME280;13496;51.040;13.680;2023-05-24T17:59:58;100282.50;;;24.93;41.35
25638;BME280;13496;51.040;13.680;2023-05-24T18:04:59;100278.84;;;24.87;41.19
25638;BME280;13496;51.040;13.680;2023-05-24T18:10:02;100276.63;;;24.84;41.06
25638;BME280;13496;51.040;13.680;2023-05-24T18:15:05;100280.91;;;24.85;41.58
25638;BME280;13496;51.040;13.680;2023-05-24T18:20:07;100284.00;;;24.82;41.44
25638;BME280;13496;51.040;13.680;2023-05-24T18:25:09;100284.03;;;24.75;41.38
25638;BME280;13496;51.040;13.680;2023-05-24T18:30:11;100282.63;;;24.73;41.53
25638;BME280;13496;51.040;13.680;2023-05-24T18:35:13;100289.78;;;24.72;41.74
25638;BME280;13496;51.040;13.680;2023-05-24T18:40:15;100302.25;;;24.72;41.82
25638;BME280;13496;51.040;13.680;2023-05-24T18:45:17;100297.97;;;24.71;41.92
25638;BME280;13496;51.040;13.680;2023-05-24T18:50:19;100305.75;;;24.66;42.13
25638;BME280;13496;51.040;13.680;2023-05-24T18:55:23;100298.81;;;24.65;42.09
25638;BME280;13496;51.040;13.680;2023-05-24T19:00:24;100300.88;;;24.62;42.08
25638;BME280;13496;51.040;13.680;2023-05-24T19:05:27;100312.72;;;24.60;41.98
25638;BME280;13496;51.040;13.680;2023-05-24T19:10:28;100308.66;;;24.57;42.14
25638;BME280;13496;51.040;13.680;2023-05-24T19:15:30;100311.72;;;24.54;42.19
25638;BME280;13496;51.040;13.680;2023-05-24T19:20:32;100321.75;;;24.52;42.48
25638;BME280;13496;51.040;13.680;2023-05-24T19:25:34;100324.63;;;24.51;42.27
25638;BME280;13496;51.040;13.680;2023-05-24T19:30:40;100333.84;;;24.48;42.55
25638;BME280;13496;51.040;13.680;2023-05-24T19:35:42;100339.34;;;24.47;42.41
25638;BME280;13496;51.040;13.680;2023-05-24T19:40:43;100342.63;;;24.42;42.36
25638;BME280;13496;51.040;13.680;2023-05-24T19:45:45;100348.97;;;24.41;42.39
25638;BME280;13496;51.040;13.680;2023-05-24T19:50:49;100355.47;;;24.38;42.78
25638;BME280;13496;51.040;13.680;2023-05-24T19:55:50;100356.50;;;24.37;43.20
25638;BME280;13496;51.040;13.680;2023-05-24T20:00:52;100357.13;;;24.33;43.24
25638;BME280;13496;51.040;13.680;2023-05-24T20:05:54;100366.31;;;24.30;43.90
25638;BME280;13496;51.040;13.680;2023-05-24T20:10:56;100376.53;;;24.27;44.10
25638;BME280;13496;51.040;13.680;2023-05-24T20:15:57;100392.69;;;24.25;44.20
25638;BME280;13496;51.040;13.680;2023-05-24T20:21:00;100393.28;;;24.21;44.26
25638;BME280;13496;51.040;13.680;2023-05-24T20:26:02;100394.53;;;24.18;44.33
25638;BME280;13496;51.040;13.680;2023-05-24T20:31:04;100398.19;;;24.17;44.34
25638;BME280;13496;51.040;13.680;2023-05-24T20:36:07;100395.97;;;24.14;44.02
25638;BME280;13496;51.040;13.680;2023-05-24T20:41:09;100392.50;;;24.13;44.04
25638;BME280;13496;51.040;13.680;2023-05-24T20:46:12;100402.50;;;24.11;43.92
25638;BME280;13496;51.040;13.680;2023-05-24T20:51:13;100410.88;;;24.08;43.92
25638;BME280;13496;51.040;13.680;2023-05-24T20:56:15;100411.91;;;24.07;44.20
25638;BME280;13496;51.040;13.680;2023-05-24T21:01:19;100412.31;;;24.04;43.53
25638;BME280;13496;51.040;13.680;2023-05-24T21:06:21;100413.34;;;24.03;43.42
25638;BME280;13496;51.040;13.680;2023-05-24T21:11:23;100425.97;;;24.01;43.85
25638;BME280;13496;51.040;13.680;2023-05-24T21:16:24;100421.91;;;23.99;43.81
25638;BME280;13496;51.040;13.680;2023-05-24T21:21:26;100422.34;;;23.96;43.73
25638;BME280;13496;51.040;13.680;2023-05-24T21:26:28;100425.38;;;23.93;44.24
25638;BME280;13496;51.040;13.680;2023-05-24T21:31:30;100433.75;;;23.89;44.35
25638;BME280;13496;51.040;13.680;2023-05-24T21:36:32;100433.75;;;23.83;44.66
25638;BME280;13496;51.040;13.680;2023-05-24T21:41:36;100423.78;;;23.78;44.89
25638;BME280;13496;51.040;13.680;2023-05-24T21:46:37;100427.66;;;23.76;44.63
25638;BME280;13496;51.040;13.680;2023-05-24T21:51:39;100431.72;;;23.72;44.69
25638;BME280;13496;51.040;13.680;2023-05-24T21:56:41;100438.25;;;23.69;44.85
25638;BME280;13496;51.040;13.680;2023-05-24T22:01:42;100441.88;;;23.61;45.04
25638;BME280;13496;51.040;13.680;2023-05-24T22:06:44;100450.84;;;23.60;45.09
25638;BME280;13496;51.040;13.680;2023-05-24T22:11:46;100442.50;;;23.57;45.34
25638;BME280;13496;51.040;13.680;2023-05-24T22:16:48;100449.44;;;23.51;45.16
25638;BME280;13496;51.040;13.680;2023-05-24T22:21:50;100450.44;;;23.50;45.26
25638;BME280;13496;51.040;13.680;2023-05-24T22:26:52;100457.78;;;23.48;45.22
25638;BME280;13496;51.040;13.680;2023-05-24T22:31:54;100453.28;;;23.42;45.25
25638;BME280;13496;51.040;13.680;2023-05-24T22:36:56;100456.97;;;23.41;45.26
25638;BME280;13496;51.040;13.680;2023-05-24T22:41:57;100459.00;;;23.39;44.93
25638;BME280;13496;51.040;13.680;2023-05-24T22:46:59;100456.75;;;23.36;45.46
25638;BME280;13496;51.040;13.680;2023-05-24T22:52:02;100456.16;;;23.34;45.35
25638;BME280;13496;51.040;13.680;2023-05-24T22:57:05;100461.84;;;23.31;45.49
25638;BME280;13496;51.040;13.680;2023-05-24T23:02:07;100464.88;;;23.28;45.74
25638;BME280;13496;51.040;13.680;2023-05-24T23:07:08;100465.09;;;23.26;45.38
25638;BME280;13496;51.040;13.680;2023-05-24T23:12:10;100461.00;;;23.24;45.54
25638;BME280;13496;51.040;13.680;2023-05-24T23:17:12;100458.75;;;23.21;45.51
25638;BME280;13496;51.040;13.680;2023-05-24T23:22:15;100458.16;;;23.18;45.55
25638;BME280;13496;51.040;13.680;2023-05-24T23:27:19;100461.63;;;23.19;45.40
25638;BME280;13496;51.040;13.680;2023-05-24T23:32:21;100460.59;;;23.13;45.53
25638;BME280;13496;51.040;13.680;2023-05-24T23:37:23;100474.84;;;23.12;45.41
25638;BME280;13496;51.040;13.680;2023-05-24T23:42:24;100482.56;;;23.07;45.42
25638;BME280;13496;51.040;13.680;2023-05-24T23:47:26;100480.13;;;23.06;45.38
25638;BME280;13496;51.040;13.680;2023-05-24T23:52:28;100487.47;;;23.04;45.38
25638;BME280;13496;51.040;13.680;2023-05-24T23:57:30;100484.19;;;23.02;45.37
